sensor_id;sensor_type;location;lat;lon;timestamp;temperature;humidity
15364;DHT22;7781;49.690;6.472;2023-08-12T00:00:08;21.30;99.90
15364;DHT22;7781;49.690;6.472;2023-08-12T00:02:44;21.30;99.90
15364;DHT22;7781;49.690;6.472;2023-08-12T00:05:14;21.20;99.90
15364;DHT22;7781;49.690;6.472;2023-08-12T00:07:44;21.30;99.90
15364;DHT22;7781;49.690;6.472;2023-08-12T00:10:13;21.30;99.90
15364;DHT22;7781;49.690;6.472;2023-08-12T00:12:42;21.30;99.90
15364;DHT22;7781;49.690;6.472;2023-08-12T00:15:11;21.40;99.90
15364;DHT22;7781;49.690;6.472;2023-08-12T00:17:40;21.40;99.90
15364;DHT22;7781;49.690;6.472;2023-08-12T00:20:16;21.30;99.90
15364;DHT22;7781;49.690;6.472;2023-08-12T00:22:45;21.30;99.90
15364;DHT22;7781;49.690;6.472;2023-08-12T00:25:15;21.20;99.90
15364;DHT22;7781;49.690;6.472;2023-08-12T00:27:44;21.20;99.90
15364;DHT22;7781;49.690;6.472;2023-08-12T00:30:13;21.30;99.90
15364;DHT22;7781;49.690;6.472;2023-08-12T00:32:43;21.20;99.90
15364;DHT22;7781;49.690;6.472;2023-08-12T00:35:11;21.20;99.90
15364;DHT22;7781;49.690;6.472;2023-08-12T00:37:42;21.10;99.90
15364;DHT22;7781;49.690;6.472;2023-08-12T00:40:11;21.10;99.90
15364;DHT22;7781;49.690;6.472;2023-08-12T00:42:39;21.00;99.90
15364;DHT22;7781;49.690;6.472;2023-08-12T00:45:09;20.90;99.90
15364;DHT22;7781;49.690;6.472;2023-08-12T00:47:41;20.90;99.90
15364;DHT22;7781;49.690;6.472;2023-08-12T00:50:12;20.80;99.90
15364;DHT22;7781;49.690;6.472;2023-08-12T00:52:43;20.80;99.90
15364;DHT22;7781;49.690;6.472;2023-08-12T00:55:13;20.70;99.90
15364;DHT22;7781;49.690;6.472;2023-08-12T00:57:41;20.70;99.90
15364;DHT22;7781;49.690;6.472;2023-08-12T01:00:12;20.70;99.90
15364;DHT22;7781;49.690;6.472;2023-08-12T01:02:42;20.70;99.90
15364;DHT22;7781;49.690;6.472;2023-08-12T01:05:16;20.60;99.90
15364;DHT22;7781;49.690;6.472;2023-08-12T01:07:46;20.60;99.90
15364;DHT22;7781;49.690;6.472;2023-08-12T01:10:16;20.50;99.90
15364;DHT22;7781;49.690;6.472;2023-08-12T01:12:52;20.50;99.90
15364;DHT22;7781;49.690;6.472;2023-08-12T01:15:24;20.40;99.90
15364;DHT22;7781;49.690;6.472;2023-08-12T01:17:54;20.40;99.90
15364;DHT22;7781;49.690;6.472;2023-08-12T01:20:25;20.30;99.90
15364;DHT22;7781;49.690;6.472;2023-08-12T01:22:58;20.30;99.90
15364;DHT22;7781;49.690;6.472;2023-08-12T01:25:28;20.20;99.90
15364;DHT22;7781;49.690;6.472;2023-08-12T01:27:58;20.20;99.90
15364;DHT22;7781;49.690;6.472;2023-08-12T01:30:27;20.10;99.90
15364;DHT22;7781;49.690;6.472;2023-08-12T01:33:01;20.10;99.90
15364;DHT22;7781;49.690;6.472;2023-08-12T01:35:35;20.10;99.90
15364;DHT22;7781;49.690;6.472;2023-08-12T01:38:06;20.10;99.90
15364;DHT22;7781;49.690;6.472;2023-08-12T01:40:38;20.10;99.90
15364;DHT22;7781;49.690;6.472;2023-08-12T01:43:07;20.10;99.90
15364;DHT22;7781;49.690;6.472;2023-08-12T01:45:37;20.10;99.90
15364;DHT22;7781;49.690;6.472;2023-08-12T01:48:06;20.00;99.90
15364;DHT22;7781;49.690;6.472;2023-08-12T01:50:35;20.10;99.90
15364;DHT22;7781;49.690;6.472;2023-08-12T01:53:04;20.10;99.90
15364;DHT22;7781;49.690;6.472;2023-08-12T01:55:34;20.10;99.90
15364;DHT22;7781;49.690;6.472;2023-08-12T01:58:04;20.10;99.90
15364;DHT22;7781;49.690;6.472;2023-08-12T02:00:33;20.00;99.90
15364;DHT22;7781;49.690;6.472;2023-08-12T02:03:01;20.00;99.90
15364;DHT22;7781;49.690;6.472;2023-08-12T02:05:30;20.00;99.90
15364;DHT22;7781;49.690;6.472;2023-08-12T02:08:00;19.90;99.90
15364;DHT22;7781;49.690;6.472;2023-08-12T02:10:30;19.90;99.90
15364;DHT22;7781;49.690;6.472;2023-08-12T02:13:00;19.80;99.90
15364;DHT22;7781;49.690;6.472;2023-08-12T02:15:33;19.80;99.90
15364;DHT22;7781;49.690;6.472;2023-08-12T02:18:01;19.80;99.90
15364;DHT22;7781;49.690;6.472;2023-08-12T02:20:30;19.70;99.90
15364;DHT22;7781;49.690;6.472;2023-08-12T02:23:01;19.70;99.90
15364;DHT22;7781;49.690;6.472;2023-08-12T02:25:31;19.60;99.90
15364;DHT22;7781;49.690;6.472;2023-08-12T02:27:59;19.50;99.90
15364;DHT22;7781;49.690;6.472;2023-08-12T02:30:29;19.40;99.90
15364;DHT22;7781;49.690;6.472;2023-08-12T02:32:59;19.30;99.90
15364;DHT22;7781;49.690;6.472;2023-08-12T02:35:28;19.30;99.90
15364;DHT22;7781;49.690;6.472;2023-08-12T02:37:56;19.20;99.90
15364;DHT22;7781;49.690;6.472;2023-08-12T02:40:25;19.20;99.90
15364;DHT22;7781;49.690;6.472;2023-08-12T02:42:56;19.10;99.90
15364;DHT22;7781;49.690;6.472;2023-08-12T02:45:28;19.10;99.90
15364;DHT22;7781;49.690;6.472;2023-08-12T02:47:58;19.00;99.90
15364;DHT22;7781;49.690;6.472;2023-08-12T02:50:27;18.90;99.90
15364;DHT22;7781;49.690;6.472;2023-08-12T02:52:56;18.80;99.90
15364;DHT22;7781;49.690;6.472;2023-08-12T02:55:25;18.80;99.90
15364;DHT22;7781;49.690;6.472;2023-08-12T02:57:53;18.70;99.90
15364;DHT22;7781;49.690;6.472;2023-08-12T03:00:23;18.70;99.90
15364;DHT22;7781;49.690;6.472;2023-08-12T03:02:54;18.60;99.90
15364;DHT22;7781;49.690;6.472;2023-08-12T03:05:27;18.60;99.90
15364;DHT22;7781;49.690;6.472;2023-08-12T03:07:56;18.60;99.90
15364;DHT22;7781;49.690;6.472;2023-08-12T03:10:28;18.60;99.90
15364;DHT22;7781;49.690;6.472;2023-08-12T03:12:58;18.50;99.90
15364;DHT22;7781;49.690;6.472;2023-08-12T03:15:26;18.50;99.90
15364;DHT22;7781;49.690;6.472;2023-08-12T03:17:56;18.50;99.90
15364;DHT22;7781;49.690;6.472;2023-08-12T03:20:27;18.50;99.90
15364;DHT22;7781;49.690;6.472;2023-08-12T03:22:56;18.50;99.90
15364;DHT22;7781;49.690;6.472;2023-08-12T03:25:25;18.50;99.90
15364;DHT22;7781;49.690;6.472;2023-08-12T03:27:53;18.50;99.90
15364;DHT22;7781;49.690;6.472;2023-08-12T03:30:22;18.50;99.90
15364;DHT22;7781;49.690;6.472;2023-08-12T03:32:53;18.50;99.90
15364;DHT22;7781;49.690;6.472;2023-08-12T03:35:26;18.50;99.90
15364;DHT22;7781;49.690;6.472;2023-08-12T03:37:56;18.60;99.90
15364;DHT22;7781;49.690;6.472;2023-08-12T03:40:24;18.60;99.90
15364;DHT22;7781;49.690;6.472;2023-08-12T03:42:52;18.70;99.90
15364;DHT22;7781;49.690;6.472;2023-08-12T03:45:24;18.70;99.90
15364;DHT22;7781;49.690;6.472;2023-08-12T03:47:53;18.80;99.90
15364;DHT22;7781;49.690;6.472;2023-08-12T03:50:22;18.80;99.90
15364;DHT22;7781;49.690;6.472;2023-08-12T03:52:52;18.80;99.90
15364;DHT22;7781;49.690;6.472;2023-08-12T03:55:21;18.90;99.90
15364;DHT22;7781;49.690;6.472;2023-08-12T03:57:51;18.90;99.90
15364;DHT22;7781;49.690;6.472;2023-08-12T04:00:20;18.90;99.90
15364;DHT22;7781;49.690;6.472;2023-08-12T04:02:53;19.00;99.90
15364;DHT22;7781;49.690;6.472;2023-08-12T04:05:22;19.00;99.90
15364;DHT22;7781;49.690;6.472;2023-08-12T04:07:52;19.10;99.90
15364;DHT22;7781;49.690;6.472;2023-08-12T04:10:23;19.10;99.90
15364;DHT22;7781;49.690;6.472;2023-08-12T04:12:52;19.20;99.90
15364;DHT22;7781;49.690;6.472;2023-08-12T04:15:22;19.20;99.90
15364;DHT22;7781;49.690;6.472;2023-08-12T04:17:51;19.30;99.90
15364;DHT22;7781;49.690;6.472;2023-08-12T04:20:20;19.30;99.90
15364;DHT22;7781;49.690;6.472;2023-08-12T04:22:49;19.30;99.90
15364;DHT22;7781;49.690;6.472;2023-08-12T04:25:21;19.30;99.90
15364;DHT22;7781;49.690;6.472;2023-08-12T04:27:52;19.30;99.90
15364;DHT22;7781;49.690;6.472;2023-08-12T04:30:21;19.30;99.90
15364;DHT22;7781;49.690;6.472;2023-08-12T04:32:51;19.30;99.90
15364;DHT22;7781;49.690;6.472;2023-08-12T04:35:20;19.30;99.90
15364;DHT22;7781;49.690;6.472;2023-08-12T04:37:49;19.30;99.90
15364;DHT22;7781;49.690;6.472;2023-08-12T04:40:19;19.40;99.90
15364;DHT22;7781;49.690;6.472;2023-08-12T04:42:50;19.40;99.90
15364;DHT22;7781;49.690;6.472;2023-08-12T04:45:21;19.40;99.90
15364;DHT22;7781;49.690;6.472;2023-08-12T04:47:49;19.40;99.90
15364;DHT22;7781;49.690;6.472;2023-08-12T04:50:19;19.40;99.90
15364;DHT22;7781;49.690;6.472;2023-08-12T04:52:49;19.40;99.90
15364;DHT22;7781;49.690;6.472;2023-08-12T04:55:20;19.40;99.90
15364;DHT22;7781;49.690;6.472;2023-08-12T04:57:49;19.30;99.90
15364;DHT22;7781;49.690;6.472;2023-08-12T05:00:18;19.30;99.90
15364;DHT22;7781;49.690;6.472;2023-08-12T05:02:47;19.30;99.90
15364;DHT22;7781;49.690;6.472;2023-08-12T05:05:18;19.40;99.90
15364;DHT22;7781;49.690;6.472;2023-08-12T05:07:49;19.40;99.90
15364;DHT22;7781;49.690;6.472;2023-08-12T05:10:21;19.40;99.90
15364;DHT22;7781;49.690;6.472;2023-08-12T05:12:50;19.40;99.90
15364;DHT22;7781;49.690;6.472;2023-08-12T05:15:21;19.40;99.90
15364;DHT22;7781;49.690;6.472;2023-08-12T05:17:52;19.50;99.90
15364;DHT22;7781;49.690;6.472;2023-08-12T05:20:22;19.50;99.90
15364;DHT22;7781;49.690;6.472;2023-08-12T05:22:50;19.60;99.90
15364;DHT22;7781;49.690;6.472;2023-08-12T05:25:25;19.60;99.90
15364;DHT22;7781;49.690;6.472;2023-08-12T05:27:56;19.60;99.90
15364;DHT22;7781;49.690;6.472;2023-08-12T05:30:25;19.60;99.90
15364;DHT22;7781;49.690;6.472;2023-08-12T05:32:55;19.60;99.90
15364;DHT22;7781;49.690;6.472;2023-08-12T05:35:25;19.60;99.90
15364;DHT22;7781;49.690;6.472;2023-08-12T05:37:54;19.60;99.90
15364;DHT22;7781;49.690;6.472;2023-08-12T05:40:25;19.60;99.90
15364;DHT22;7781;49.690;6.472;2023-08-12T05:42:54;19.60;99.90
15364;DHT22;7781;49.690;6.472;2023-08-12T05:45:25;19.70;99.90
15364;DHT22;7781;49.690;6.472;2023-08-12T05:47:54;19.70;99.90
15364;DHT22;7781;49.690;6.472;2023-08-12T05:50:22;19.70;99.90
15364;DHT22;7781;49.690;6.472;2023-08-12T05:52:51;19.80;99.90
15364;DHT22;7781;49.690;6.472;2023-08-12T05:55:19;19.80;99.90
15364;DHT22;7781;49.690;6.472;2023-08-12T05:57:53;19.90;99.90
15364;DHT22;7781;49.690;6.472;2023-08-12T06:00:24;19.90;99.90
15364;DHT22;7781;49.690;6.472;2023-08-12T06:02:52;20.00;99.90
15364;DHT22;7781;49.690;6.472;2023-08-12T06:05:21;20.00;99.90
15364;DHT22;7781;49.690;6.472;2023-08-12T06:07:49;20.10;99.90
15364;DHT22;7781;49.690;6.472;2023-08-12T06:10:18;20.10;99.90
15364;DHT22;7781;49.690;6.472;2023-08-12T06:12:47;20.10;99.90
15364;DHT22;7781;49.690;6.472;2023-08-12T06:15:17;20.20;99.90
15364;DHT22;7781;49.690;6.472;2023-08-12T06:17:46;20.30;99.90
15364;DHT22;7781;49.690;6.472;2023-08-12T06:20:15;20.30;99.90
15364;DHT22;7781;49.690;6.472;2023-08-12T06:22:44;20.30;99.90
15364;DHT22;7781;49.690;6.472;2023-08-12T06:25:13;20.40;99.90
15364;DHT22;7781;49.690;6.472;2023-08-12T06:27:42;20.40;99.90
15364;DHT22;7781;49.690;6.472;2023-08-12T06:30:12;20.40;99.90
15364;DHT22;7781;49.690;6.472;2023-08-12T06:32:44;20.40;99.90
15364;DHT22;7781;49.690;6.472;2023-08-12T06:35:13;20.50;99.90
15364;DHT22;7781;49.690;6.472;2023-08-12T06:37:42;20.50;99.90
15364;DHT22;7781;49.690;6.472;2023-08-12T06:40:11;20.60;99.90
15364;DHT22;7781;49.690;6.472;2023-08-12T06:42:40;20.60;99.90
15364;DHT22;7781;49.690;6.472;2023-08-12T06:45:10;20.70;99.90
15364;DHT22;7781;49.690;6.472;2023-08-12T06:47:44;20.70;99.90
15364;DHT22;7781;49.690;6.472;2023-08-12T06:50:12;20.80;99.90
15364;DHT22;7781;49.690;6.472;2023-08-12T06:52:43;20.80;99.90
15364;DHT22;7781;49.690;6.472;2023-08-12T06:55:11;20.90;99.90
15364;DHT22;7781;49.690;6.472;2023-08-12T06:57:40;20.90;99.90
15364;DHT22;7781;49.690;6.472;2023-08-12T07:00:10;21.00;99.90
15364;DHT22;7781;49.690;6.472;2023-08-12T07:02:39;21.10;99.90
15364;DHT22;7781;49.690;6.472;2023-08-12T07:05:11;21.10;99.90
15364;DHT22;7781;49.690;6.472;2023-08-12T07:07:41;21.00;99.90
15364;DHT22;7781;49.690;6.472;2023-08-12T07:10:11;21.10;99.90
15364;DHT22;7781;49.690;6.472;2023-08-12T07:12:39;21.10;99.90
15364;DHT22;7781;49.690;6.472;2023-08-12T07:15:08;21.10;99.90
15364;DHT22;7781;49.690;6.472;2023-08-12T07:17:38;21.10;99.90
15364;DHT22;7781;49.690;6.472;2023-08-12T07:20:08;21.20;99.90
15364;DHT22;7781;49.690;6.472;2023-08-12T07:22:37;21.30;99.90
15364;DHT22;7781;49.690;6.472;2023-08-12T07:25:06;21.30;99.90
15364;DHT22;7781;49.690;6.472;2023-08-12T07:27:35;21.40;99.90
15364;DHT22;7781;49.690;6.472;2023-08-12T07:30:05;21.40;99.90
15364;DHT22;7781;49.690;6.472;2023-08-12T07:32:36;21.40;99.90
15364;DHT22;7781;49.690;6.472;2023-08-12T07:35:08;21.40;99.90
15364;DHT22;7781;49.690;6.472;2023-08-12T07:37:38;21.40;99.90
15364;DHT22;7781;49.690;6.472;2023-08-12T07:40:10;21.40;99.90
15364;DHT22;7781;49.690;6.472;2023-08-12T07:42:39;21.40;99.90
15364;DHT22;7781;49.690;6.472;2023-08-12T07:45:09;21.40;99.90
15364;DHT22;7781;49.690;6.472;2023-08-12T07:47:38;21.30;99.90
15364;DHT22;7781;49.690;6.472;2023-08-12T07:50:07;21.30;99.90
15364;DHT22;7781;49.690;6.472;2023-08-12T07:52:35;21.30;99.90
15364;DHT22;7781;49.690;6.472;2023-08-12T07:55:07;21.30;99.90
15364;DHT22;7781;49.690;6.472;2023-08-12T07:57:37;21.30;99.90
15364;DHT22;7781;49.690;6.472;2023-08-12T08:00:07;21.40;99.90
15364;DHT22;7781;49.690;6.472;2023-08-12T08:02:37;21.50;99.90
15364;DHT22;7781;49.690;6.472;2023-08-12T08:05:06;21.50;99.90
15364;DHT22;7781;49.690;6.472;2023-08-12T08:07:35;21.50;99.90
15364;DHT22;7781;49.690;6.472;2023-08-12T08:10:07;21.50;99.90
15364;DHT22;7781;49.690;6.472;2023-08-12T08:12:35;21.50;99.90
15364;DHT22;7781;49.690;6.472;2023-08-12T08:15:05;21.60;99.90
15364;DHT22;7781;49.690;6.472;2023-08-12T08:17:34;21.60;99.90
15364;DHT22;7781;49.690;6.472;2023-08-12T08:20:06;21.70;99.90
15364;DHT22;7781;49.690;6.472;2023-08-12T08:22:35;21.70;99.90
15364;DHT22;7781;49.690;6.472;2023-08-12T08:25:04;21.80;99.90
15364;DHT22;7781;49.690;6.472;2023-08-12T08:27:34;21.90;99.90
15364;DHT22;7781;49.690;6.472;2023-08-12T08:30:03;21.90;99.90
15364;DHT22;7781;49.690;6.472;2023-08-12T08:32:32;22.00;99.90
15364;DHT22;7781;49.690;6.472;2023-08-12T08:35:01;22.00;99.90
15364;DHT22;7781;49.690;6.472;2023-08-12T08:37:30;22.10;99.90
15364;DHT22;7781;49.690;6.472;2023-08-12T08:39:58;22.20;99.90
15364;DHT22;7781;49.690;6.472;2023-08-12T08:42:28;22.40;99.90
15364;DHT22;7781;49.690;6.472;2023-08-12T08:45:00;22.50;99.90
15364;DHT22;7781;49.690;6.472;2023-08-12T08:47:31;22.70;99.90
15364;DHT22;7781;49.690;6.472;2023-08-12T08:50:00;22.90;99.90
15364;DHT22;7781;49.690;6.472;2023-08-12T08:52:32;23.00;99.90
15364;DHT22;7781;49.690;6.472;2023-08-12T08:55:01;23.20;99.90
15364;DHT22;7781;49.690;6.472;2023-08-12T08:57:36;23.40;99.90
15364;DHT22;7781;49.690;6.472;2023-08-12T09:00:16;23.50;99.90
15364;DHT22;7781;49.690;6.472;2023-08-12T09:02:46;23.70;99.90
15364;DHT22;7781;49.690;6.472;2023-08-12T09:05:17;23.70;99.90
15364;DHT22;7781;49.690;6.472;2023-08-12T09:07:47;23.60;99.90
15364;DHT22;7781;49.690;6.472;2023-08-12T09:10:17;23.50;99.90
15364;DHT22;7781;49.690;6.472;2023-08-12T09:12:49;23.40;99.90
15364;DHT22;7781;49.690;6.472;2023-08-12T09:15:22;23.30;99.90
15364;DHT22;7781;49.690;6.472;2023-08-12T09:17:52;23.10;99.90
15364;DHT22;7781;49.690;6.472;2023-08-12T09:20:21;23.10;99.90
15364;DHT22;7781;49.690;6.472;2023-08-12T09:22:55;22.90;99.90
15364;DHT22;7781;49.690;6.472;2023-08-12T09:25:26;22.80;99.90
15364;DHT22;7781;49.690;6.472;2023-08-12T09:27:59;22.60;99.90
15364;DHT22;7781;49.690;6.472;2023-08-12T09:30:30;22.40;99.90
15364;DHT22;7781;49.690;6.472;2023-08-12T09:33:01;22.40;99.90
15364;DHT22;7781;49.690;6.472;2023-08-12T09:35:33;22.40;99.90
15364;DHT22;7781;49.690;6.472;2023-08-12T09:38:11;22.40;99.90
15364;DHT22;7781;49.690;6.472;2023-08-12T09:40:40;22.30;99.90
15364;DHT22;7781;49.690;6.472;2023-08-12T09:43:10;22.30;99.90
15364;DHT22;7781;49.690;6.472;2023-08-12T09:45:44;22.20;99.90
15364;DHT22;7781;49.690;6.472;2023-08-12T09:48:17;22.30;99.90
15364;DHT22;7781;49.690;6.472;2023-08-12T09:50:45;22.30;99.90
15364;DHT22;7781;49.690;6.472;2023-08-12T09:56:18;22.40;99.90
15364;DHT22;7781;49.690;6.472;2023-08-12T09:58:48;22.40;99.90
15364;DHT22;7781;49.690;6.472;2023-08-12T10:01:20;22.30;99.90
15364;DHT22;7781;49.690;6.472;2023-08-12T10:03:50;22.20;99.90
15364;DHT22;7781;49.690;6.472;2023-08-12T10:06:19;22.10;99.90
15364;DHT22;7781;49.690;6.472;2023-08-12T10:08:49;22.10;99.90
15364;DHT22;7781;49.690;6.472;2023-08-12T10:11:19;22.00;99.90
15364;DHT22;7781;49.690;6.472;2023-08-12T10:13:48;22.00;99.90
15364;DHT22;7781;49.690;6.472;2023-08-12T10:16:18;21.90;99.90
15364;DHT22;7781;49.690;6.472;2023-08-12T10:18:49;22.00;99.90
15364;DHT22;7781;49.690;6.472;2023-08-12T10:21:18;22.00;99.90
15364;DHT22;7781;49.690;6.472;2023-08-12T10:23:47;22.00;99.90
15364;DHT22;7781;49.690;6.472;2023-08-12T10:26:18;22.10;99.90
15364;DHT22;7781;49.690;6.472;2023-08-12T10:28:49;22.20;99.90
15364;DHT22;7781;49.690;6.472;2023-08-12T10:31:20;22.30;99.90
15364;DHT22;7781;49.690;6.472;2023-08-12T10:33:52;22.40;99.90
15364;DHT22;7781;49.690;6.472;2023-08-12T10:36:23;22.50;99.90
15364;DHT22;7781;49.690;6.472;2023-08-12T10:38:56;22.50;99.90
15364;DHT22;7781;49.690;6.472;2023-08-12T10:41:25;22.30;99.90
15364;DHT22;7781;49.690;6.472;2023-08-12T10:43:57;22.50;99.90
15364;DHT22;7781;49.690;6.472;2023-08-12T10:46:33;22.80;99.90
15364;DHT22;7781;49.690;6.472;2023-08-12T10:49:04;22.90;99.90
15364;DHT22;7781;49.690;6.472;2023-08-12T10:51:45;22.90;99.90
15364;DHT22;7781;49.690;6.472;2023-08-12T10:54:20;23.00;99.90
15364;DHT22;7781;49.690;6.472;2023-08-12T10:57:08;22.90;99.90
15364;DHT22;7781;49.690;6.472;2023-08-12T10:59:56;22.80;99.90
15364;DHT22;7781;49.690;6.472;2023-08-12T11:02:31;22.90;99.90
15364;DHT22;7781;49.690;6.472;2023-08-12T11:05:02;22.90;99.90
15364;DHT22;7781;49.690;6.472;2023-08-12T11:07:38;23.10;99.90
15364;DHT22;7781;49.690;6.472;2023-08-12T11:10:12;23.20;99.90
15364;DHT22;7781;49.690;6.472;2023-08-12T11:12:53;23.30;99.90
15364;DHT22;7781;49.690;6.472;2023-08-12T11:15:30;23.50;99.90
15364;DHT22;7781;49.690;6.472;2023-08-12T11:18:02;23.50;99.90
15364;DHT22;7781;49.690;6.472;2023-08-12T11:20:32;23.50;99.90
15364;DHT22;7781;49.690;6.472;2023-08-12T11:23:02;23.60;99.90
15364;DHT22;7781;49.690;6.472;2023-08-12T11:25:32;23.60;99.90
15364;DHT22;7781;49.690;6.472;2023-08-12T11:28:04;23.50;99.90
15364;DHT22;7781;49.690;6.472;2023-08-12T11:30:34;23.60;99.90
15364;DHT22;7781;49.690;6.472;2023-08-12T11:33:06;23.50;99.90
15364;DHT22;7781;49.690;6.472;2023-08-12T11:35:34;23.40;99.90
15364;DHT22;7781;49.690;6.472;2023-08-12T11:38:05;23.40;99.90
15364;DHT22;7781;49.690;6.472;2023-08-12T11:40:35;23.50;99.90
15364;DHT22;7781;49.690;6.472;2023-08-12T11:43:04;23.70;99.90
15364;DHT22;7781;49.690;6.472;2023-08-12T11:45:33;23.70;94.40
15364;DHT22;7781;49.690;6.472;2023-08-12T11:48:02;23.70;99.90
15364;DHT22;7781;49.690;6.472;2023-08-12T11:50:33;23.70;54.80
15364;DHT22;7781;49.690;6.472;2023-08-12T11:53:05;23.70;69.80
15364;DHT22;7781;49.690;6.472;2023-08-12T11:55:34;23.60;87.10
15364;DHT22;7781;49.690;6.472;2023-08-12T11:58:06;23.70;31.70
15364;DHT22;7781;49.690;6.472;2023-08-12T12:00:34;23.80;58.80
15364;DHT22;7781;49.690;6.472;2023-08-12T12:03:06;23.90;81.70
15364;DHT22;7781;49.690;6.472;2023-08-12T12:05:40;23.90;48.00
15364;DHT22;7781;49.690;6.472;2023-08-12T12:08:09;23.90;34.70
15364;DHT22;7781;49.690;6.472;2023-08-12T12:10:38;23.80;21.90
15364;DHT22;7781;49.690;6.472;2023-08-12T12:13:08;23.70;22.10
15364;DHT22;7781;49.690;6.472;2023-08-12T12:15:41;23.80;40.60
15364;DHT22;7781;49.690;6.472;2023-08-12T12:18:10;23.70;62.20
15364;DHT22;7781;49.690;6.472;2023-08-12T12:20:55;23.70;65.00
15364;DHT22;7781;49.690;6.472;2023-08-12T12:23:27;23.70;25.70
15364;DHT22;7781;49.690;6.472;2023-08-12T12:26:00;23.80;26.10
15364;DHT22;7781;49.690;6.472;2023-08-12T12:28:30;23.70;11.60
15364;DHT22;7781;49.690;6.472;2023-08-12T12:30:59;23.70;23.80
15364;DHT22;7781;49.690;6.472;2023-08-12T12:33:28;23.80;24.90
15364;DHT22;7781;49.690;6.472;2023-08-12T12:35:58;23.80;19.80
15364;DHT22;7781;49.690;6.472;2023-08-12T12:38:31;23.80;29.80
15364;DHT22;7781;49.690;6.472;2023-08-12T12:40:59;23.80;37.90
15364;DHT22;7781;49.690;6.472;2023-08-12T12:43:29;23.80;45.60
15364;DHT22;7781;49.690;6.472;2023-08-12T12:45:57;23.80;39.10
15364;DHT22;7781;49.690;6.472;2023-08-12T12:48:26;23.80;83.70
15364;DHT22;7781;49.690;6.472;2023-08-12T12:50:57;23.80;75.30
15364;DHT22;7781;49.690;6.472;2023-08-12T12:53:27;23.80;64.80
15364;DHT22;7781;49.690;6.472;2023-08-12T12:55:55;23.80;92.50
15364;DHT22;7781;49.690;6.472;2023-08-12T12:58:25;23.90;95.20
15364;DHT22;7781;49.690;6.472;2023-08-12T13:00:53;23.80;78.60
15364;DHT22;7781;49.690;6.472;2023-08-12T13:03:22;23.80;1.00
15364;DHT22;7781;49.690;6.472;2023-08-12T13:05:50;23.80;1.00
15364;DHT22;7781;49.690;6.472;2023-08-12T13:08:20;23.80;1.00
15364;DHT22;7781;49.690;6.472;2023-08-12T13:10:49;23.80;1.00
15364;DHT22;7781;49.690;6.472;2023-08-12T13:13:18;23.80;1.00
15364;DHT22;7781;49.690;6.472;2023-08-12T13:15:47;23.80;1.00
15364;DHT22;7781;49.690;6.472;2023-08-12T13:18:17;23.60;1.00
15364;DHT22;7781;49.690;6.472;2023-08-12T13:20:46;23.60;1.00
15364;DHT22;7781;49.690;6.472;2023-08-12T13:23:16;23.60;3.70
15364;DHT22;7781;49.690;6.472;2023-08-12T13:25:46;23.60;1.00
15364;DHT22;7781;49.690;6.472;2023-08-12T13:28:15;23.50;14.60
15364;DHT22;7781;49.690;6.472;2023-08-12T13:30:45;23.50;28.50
15364;DHT22;7781;49.690;6.472;2023-08-12T13:33:14;23.40;37.70
15364;DHT22;7781;49.690;6.472;2023-08-12T13:35:42;23.40;52.20
15364;DHT22;7781;49.690;6.472;2023-08-12T13:38:12;23.30;61.30
15364;DHT22;7781;49.690;6.472;2023-08-12T13:40:40;23.30;92.90
15364;DHT22;7781;49.690;6.472;2023-08-12T13:43:10;23.30;99.90
15364;DHT22;7781;49.690;6.472;2023-08-12T13:45:39;23.20;99.90
15364;DHT22;7781;49.690;6.472;2023-08-12T13:48:09;23.10;99.90
15364;DHT22;7781;49.690;6.472;2023-08-12T13:50:38;23.10;99.90
15364;DHT22;7781;49.690;6.472;2023-08-12T13:53:06;23.10;99.90
15364;DHT22;7781;49.690;6.472;2023-08-12T13:55:35;23.00;99.90
15364;DHT22;7781;49.690;6.472;2023-08-12T13:58:03;23.00;99.90
15364;DHT22;7781;49.690;6.472;2023-08-12T14:00:33;23.00;99.90
15364;DHT22;7781;49.690;6.472;2023-08-12T14:03:02;23.10;99.90
15364;DHT22;7781;49.690;6.472;2023-08-12T14:05:31;23.10;99.90
15364;DHT22;7781;49.690;6.472;2023-08-12T14:08:00;23.10;99.90
15364;DHT22;7781;49.690;6.472;2023-08-12T14:10:29;22.90;99.90
15364;DHT22;7781;49.690;6.472;2023-08-12T14:12:57;22.70;99.90
15364;DHT22;7781;49.690;6.472;2023-08-12T14:15:26;22.60;99.90
15364;DHT22;7781;49.690;6.472;2023-08-12T14:17:56;22.50;99.90
15364;DHT22;7781;49.690;6.472;2023-08-12T14:20:25;22.40;99.90
15364;DHT22;7781;49.690;6.472;2023-08-12T14:22:54;22.30;99.90
15364;DHT22;7781;49.690;6.472;2023-08-12T14:25:23;22.30;99.90
15364;DHT22;7781;49.690;6.472;2023-08-12T14:27:53;22.20;99.90
15364;DHT22;7781;49.690;6.472;2023-08-12T14:30:23;22.00;99.90
15364;DHT22;7781;49.690;6.472;2023-08-12T14:32:53;21.90;99.90
15364;DHT22;7781;49.690;6.472;2023-08-12T14:35:24;21.90;99.90
15364;DHT22;7781;49.690;6.472;2023-08-12T14:37:52;21.80;99.90
15364;DHT22;7781;49.690;6.472;2023-08-12T14:40:21;21.80;99.90
15364;DHT22;7781;49.690;6.472;2023-08-12T14:42:50;21.80;99.90
15364;DHT22;7781;49.690;6.472;2023-08-12T14:45:19;21.90;99.90
15364;DHT22;7781;49.690;6.472;2023-08-12T14:47:49;21.80;99.90
15364;DHT22;7781;49.690;6.472;2023-08-12T14:50:20;21.80;99.90
15364;DHT22;7781;49.690;6.472;2023-08-12T14:52:50;21.80;99.90
15364;DHT22;7781;49.690;6.472;2023-08-12T14:55:19;21.90;99.90
15364;DHT22;7781;49.690;6.472;2023-08-12T14:57:48;22.00;99.90
15364;DHT22;7781;49.690;6.472;2023-08-12T15:00:19;22.00;99.90
15364;DHT22;7781;49.690;6.472;2023-08-12T15:02:48;22.10;99.90
15364;DHT22;7781;49.690;6.472;2023-08-12T15:05:17;22.10;99.90
15364;DHT22;7781;49.690;6.472;2023-08-12T15:07:46;22.20;99.90
15364;DHT22;7781;49.690;6.472;2023-08-12T15:10:16;22.20;99.90
15364;DHT22;7781;49.690;6.472;2023-08-12T15:12:45;22.20;99.90
15364;DHT22;7781;49.690;6.472;2023-08-12T15:15:13;22.50;99.90
15364;DHT22;7781;49.690;6.472;2023-08-12T15:17:42;22.70;99.90
15364;DHT22;7781;49.690;6.472;2023-08-12T15:20:13;23.10;99.90
15364;DHT22;7781;49.690;6.472;2023-08-12T15:22:41;23.70;99.90
15364;DHT22;7781;49.690;6.472;2023-08-12T15:25:10;24.10;99.90
15364;DHT22;7781;49.690;6.472;2023-08-12T15:27:40;24.20;99.90
15364;DHT22;7781;49.690;6.472;2023-08-12T15:30:09;24.50;99.90
15364;DHT22;7781;49.690;6.472;2023-08-12T15:32:37;25.00;99.90
15364;DHT22;7781;49.690;6.472;2023-08-12T15:35:09;24.90;99.90
15364;DHT22;7781;49.690;6.472;2023-08-12T15:37:38;24.50;99.90
15364;DHT22;7781;49.690;6.472;2023-08-12T15:40:08;24.50;99.90
15364;DHT22;7781;49.690;6.472;2023-08-12T15:42:37;24.20;99.90
15364;DHT22;7781;49.690;6.472;2023-08-12T15:45:09;24.00;99.90
15364;DHT22;7781;49.690;6.472;2023-08-12T15:47:40;23.90;99.90
15364;DHT22;7781;49.690;6.472;2023-08-12T15:50:09;23.70;99.90
15364;DHT22;7781;49.690;6.472;2023-08-12T15:52:38;23.60;99.90
15364;DHT22;7781;49.690;6.472;2023-08-12T15:55:08;23.50;99.90
15364;DHT22;7781;49.690;6.472;2023-08-12T15:57:36;23.50;99.90
15364;DHT22;7781;49.690;6.472;2023-08-12T16:00:10;23.40;99.90
15364;DHT22;7781;49.690;6.472;2023-08-12T16:02:39;23.30;99.90
15364;DHT22;7781;49.690;6.472;2023-08-12T16:05:08;23.30;99.90
15364;DHT22;7781;49.690;6.472;2023-08-12T16:07:37;23.30;99.90